Time;durP1;ratioP1;P1;durP2;ratioP2;P2;SDS_P1;SDS_P2;PMS_P1;PMS_P2;Temp;Humidity;BMP_temperature;BMP_pressure;BME280_temperature;BME280_humidity;BME280_pressure;Samples;Min_cycle;Max_cycle;Signal;HPM_P1;HPM_P2
2023/09/10 00:01:02;;;;;;;5.90;5.28;;;23.80;67.10;;;;;;5016551;28;20022;-74
2023/09/10 00:03:29;;;;;;;9.90;5.72;;;23.80;67.70;;;;;;5016745;28;20494;-75
2023/09/10 00:05:55;;;;;;;6.93;5.60;;;23.70;67.90;;;;;;5031891;28;20359;-73
2023/09/10 00:08:20;;;;;;;12.30;5.47;;;23.70;68.10;;;;;;5016309;28;20075;-72
2023/09/10 00:10:47;;;;;;;7.50;5.07;;;23.60;68.80;;;;;;5016203;28;20076;-72
2023/09/10 00:13:12;;;;;;;7.15;5.20;;;23.60;68.50;;;;;;5016401;28;20070;-73
2023/09/10 00:15:39;;;;;;;9.20;5.60;;;23.60;69.10;;;;;;5016105;28;20022;-72
2023/09/10 00:18:04;;;;;;;6.20;5.15;;;23.60;68.40;;;;;;5016456;28;20363;-72
2023/09/10 00:20:30;;;;;;;12.35;5.75;;;23.60;68.40;;;;;;5016318;28;20022;-72
2023/09/10 00:22:56;;;;;;;10.85;5.50;;;23.60;68.30;;;;;;5016337;28;20041;-72
2023/09/10 00:25:22;;;;;;;9.00;5.78;;;23.60;68.30;;;;;;5016346;28;20620;-73
2023/09/10 00:27:48;;;;;;;9.55;6.03;;;23.60;68.30;;;;;;5015795;28;20147;-73
2023/09/10 00:30:13;;;;;;;9.93;5.53;;;23.60;68.00;;;;;;5016072;28;20034;-72
2023/09/10 00:32:39;;;;;;;8.40;5.88;;;23.60;67.90;;;;;;5014915;28;20029;-73
2023/09/10 00:35:07;;;;;;;8.57;5.40;;;23.50;67.90;;;;;;5014381;28;20022;-72
2023/09/10 00:37:33;;;;;;;9.30;5.32;;;23.60;67.80;;;;;;5016150;28;20021;-72
2023/09/10 00:39:58;;;;;;;11.18;6.07;;;23.60;67.90;;;;;;5015540;28;20108;-73
2023/09/10 00:42:24;;;;;;;6.18;5.57;;;23.60;67.80;;;;;;5014696;28;20022;-73
2023/09/10 00:44:50;;;;;;;11.07;5.47;;;23.60;68.00;;;;;;5016064;28;20101;-72
2023/09/10 00:47:16;;;;;;;9.38;5.95;;;23.60;68.10;;;;;;5014478;28;20113;-72
2023/09/10 00:49:43;;;;;;;8.70;5.15;;;23.50;68.00;;;;;;5015669;28;20029;-72
2023/09/10 00:52:11;;;;;;;17.83;6.10;;;23.60;67.70;;;;;;5015734;28;20038;-73
2023/09/10 00:54:38;;;;;;;7.22;5.22;;;23.50;68.00;;;;;;5015623;28;20026;-73
2023/09/10 00:57:05;;;;;;;6.95;5.57;;;23.50;68.40;;;;;;5015639;28;20048;-73
2023/09/10 00:59:31;;;;;;;10.82;6.18;;;23.40;68.50;;;;;;5015578;28;20385;-72
2023/09/10 01:02:00;;;;;;;9.20;6.30;;;23.30;68.60;;;;;;5015693;28;20026;-72
2023/09/10 01:04:26;;;;;;;8.73;6.22;;;23.30;69.00;;;;;;5015524;28;20474;-72
2023/09/10 01:06:53;;;;;;;7.47;6.20;;;23.20;68.80;;;;;;5015545;28;20029;-72
2023/09/10 01:09:19;;;;;;;6.25;5.63;;;23.20;69.00;;;;;;5015244;28;20506;-72
2023/09/10 01:11:45;;;;;;;7.22;5.53;;;23.10;69.20;;;;;;5015275;28;20127;-72
2023/09/10 01:14:19;;;;;;;8.07;5.50;;;23.10;69.20;;;;;;5015532;28;20081;-73
2023/09/10 01:16:56;;;;;;;8.02;6.28;;;23.10;69.20;;;;;;5014146;28;20026;-72
2023/09/10 01:19:43;;;;;;;9.23;6.38;;;23.10;69.30;;;;;;5015365;28;20030;-72
2023/09/10 01:22:25;;;;;;;9.20;6.72;;;23.10;69.50;;;;;;5015188;28;20036;-73
2023/09/10 01:24:52;;;;;;;7.10;5.95;;;23.00;69.90;;;;;;5015303;28;20054;-72
2023/09/10 01:27:18;;;;;;;8.07;5.55;;;22.90;70.00;;;;;;5015013;28;20049;-72
2023/09/10 01:29:44;;;;;;;7.55;6.15;;;22.90;70.40;;;;;;5015155;28;20536;-72
2023/09/10 01:32:40;;;;;;;10.20;6.00;;;22.90;70.40;;;;;;5014826;28;20543;-73
2023/09/10 01:35:09;;;;;;;15.30;6.07;;;22.80;70.80;;;;;;5015069;28;20550;-72
2023/09/10 01:37:43;;;;;;;11.80;6.18;;;22.70;70.90;;;;;;5013850;28;20593;-73
2023/09/10 01:40:11;;;;;;;7.15;6.15;;;22.70;71.00;;;;;;5015113;28;20072;-73
2023/09/10 01:42:39;;;;;;;7.75;6.47;;;22.70;71.20;;;;;;5014454;28;20029;-73
2023/09/10 01:45:07;;;;;;;8.70;5.88;;;22.60;71.20;;;;;;5014983;28;20450;-73
2023/09/10 01:47:32;;;;;;;8.35;5.93;;;22.60;71.50;;;;;;5014903;28;20382;-73
2023/09/10 01:49:58;;;;;;;7.47;5.40;;;22.50;71.40;;;;;;5014779;28;20026;-73
2023/09/10 01:52:24;;;;;;;6.70;5.88;;;22.50;71.50;;;;;;5014640;28;20482;-73
2023/09/10 01:54:49;;;;;;;6.63;5.70;;;22.50;72.40;;;;;;5014334;28;20026;-73
2023/09/10 01:57:15;;;;;;;9.30;6.40;;;22.50;71.70;;;;;;5014053;28;20132;-73
2023/09/10 01:59:41;;;;;;;9.55;5.78;;;22.40;71.70;;;;;;5014285;28;20064;-73
2023/09/10 02:02:07;;;;;;;7.03;6.10;;;22.30;71.70;;;;;;5014398;28;20026;-73
2023/09/10 02:04:33;;;;;;;9.15;6.32;;;22.30;71.90;;;;;;5014501;28;20415;-73
2023/09/10 02:06:59;;;;;;;7.55;6.72;;;22.20;72.10;;;;;;5014318;28;20104;-73
2023/09/10 02:09:24;;;;;;;8.10;6.60;;;22.20;72.30;;;;;;5014309;28;20022;-73
2023/09/10 02:11:50;;;;;;;9.10;6.22;;;22.20;72.30;;;;;;5029078;28;20053;-73
2023/09/10 02:14:16;;;;;;;9.88;6.53;;;22.10;72.30;;;;;;5012912;28;20033;-74
2023/09/10 02:16:42;;;;;;;7.53;6.55;;;22.10;72.50;;;;;;5014261;28;20093;-73
2023/09/10 02:19:07;;;;;;;11.27;6.55;;;22.10;73.00;;;;;;5013909;28;20044;-73
2023/09/10 02:21:33;;;;;;;8.27;6.57;;;22.10;73.30;;;;;;5014043;28;20022;-73
2023/09/10 02:24:00;;;;;;;9.68;6.82;;;22.10;73.20;;;;;;5014543;28;20036;-72
2023/09/10 02:26:26;;;;;;;8.48;6.50;;;22.00;73.20;;;;;;5013927;28;20053;-73
2023/09/10 02:28:52;;;;;;;10.77;6.60;;;22.00;73.30;;;;;;5014067;28;20132;-73
2023/09/10 02:31:21;;;;;;;11.75;6.93;;;22.00;73.20;;;;;;5013648;28;20137;-73
2023/09/10 02:33:47;;;;;;;10.63;6.60;;;22.00;73.60;;;;;;5013910;28;20109;-74
2023/09/10 02:36:12;;;;;;;7.75;5.97;;;22.00;73.80;;;;;;5013838;28;20053;-73
2023/09/10 02:38:38;;;;;;;7.85;6.15;;;22.00;73.70;;;;;;5028794;28;20084;-73
2023/09/10 02:41:04;;;;;;;6.85;5.80;;;22.00;73.80;;;;;;5028982;28;20099;-73
2023/09/10 02:43:30;;;;;;;7.68;5.40;;;22.10;73.20;;;;;;5013705;28;20467;-73
2023/09/10 02:45:56;;;;;;;6.95;5.00;;;22.10;72.50;;;;;;5013870;28;20083;-73
2023/09/10 02:48:22;;;;;;;6.93;5.78;;;22.10;72.00;;;;;;5013270;28;20029;-73
2023/09/10 02:50:47;;;;;;;8.95;5.07;;;22.10;71.70;;;;;;5013666;28;20049;-74
2023/09/10 02:53:13;;;;;;;11.82;5.65;;;22.20;71.60;;;;;;5013459;28;20029;-74
2023/09/10 02:55:39;;;;;;;6.05;4.78;;;22.20;71.50;;;;;;5012291;28;20359;-74
2023/09/10 02:58:06;;;;;;;9.32;5.05;;;22.20;71.40;;;;;;5013596;28;20032;-74
2023/09/10 03:00:32;;;;;;;7.15;5.47;;;22.30;71.20;;;;;;5012328;28;20030;-74
2023/09/10 03:02:58;;;;;;;12.27;5.43;;;22.30;71.10;;;;;;5013415;28;20036;-74
2023/09/10 03:05:24;;;;;;;7.03;5.15;;;22.30;71.20;;;;;;5012687;28;20100;-74
2023/09/10 03:07:54;;;;;;;7.97;5.05;;;22.20;71.10;;;;;;5012215;28;20038;-74
2023/09/10 03:10:20;;;;;;;8.55;5.03;;;22.30;71.40;;;;;;5013486;28;20050;-74
2023/09/10 03:12:46;;;;;;;12.82;5.80;;;22.30;71.40;;;;;;5013463;28;20405;-74
2023/09/10 03:15:13;;;;;;;6.65;5.53;;;22.20;71.40;;;;;;5013228;28;20060;-74
2023/09/10 03:17:39;;;;;;;7.15;5.47;;;22.20;71.70;;;;;;5013081;28;20026;-74
2023/09/10 03:20:08;;;;;;;6.15;5.43;;;22.20;71.60;;;;;;5013188;28;20430;-74
2023/09/10 03:22:35;;;;;;;8.90;5.47;;;22.20;71.50;;;;;;5013250;28;20033;-74
2023/09/10 03:25:00;;;;;;;10.93;5.45;;;22.20;71.60;;;;;;5013297;28;20022;-73
2023/09/10 03:27:26;;;;;;;8.52;5.07;;;22.20;71.60;;;;;;5013196;28;20065;-74
2023/09/10 03:29:52;;;;;;;7.28;5.30;;;22.20;71.40;;;;;;5028311;28;20050;-74
2023/09/10 03:32:18;;;;;;;8.88;5.32;;;22.20;71.20;;;;;;5011797;28;20060;-75
2023/09/10 03:34:43;;;;;;;7.30;4.95;;;22.20;71.60;;;;;;5013136;28;20025;-74
2023/09/10 03:37:09;;;;;;;11.35;5.15;;;22.10;71.70;;;;;;5011547;28;20034;-74
2023/09/10 03:39:36;;;;;;;5.75;5.15;;;22.20;71.80;;;;;;5012963;28;20083;-74
2023/09/10 03:42:02;;;;;;;7.07;5.00;;;22.10;72.00;;;;;;5013267;28;20062;-74
2023/09/10 03:44:28;;;;;;;8.43;5.20;;;22.10;72.20;;;;;;5012038;28;20374;-74
2023/09/10 03:46:54;;;;;;;7.80;4.93;;;22.20;72.50;;;;;;5012796;28;20041;-74
2023/09/10 03:49:21;;;;;;;6.60;5.45;;;22.10;72.70;;;;;;5013070;28;20429;-74
2023/09/10 03:51:49;;;;;;;7.07;5.20;;;22.20;72.60;;;;;;5012800;28;20509;-74
2023/09/10 03:54:14;;;;;;;6.85;5.25;;;22.20;72.50;;;;;;5012767;28;20026;-74
2023/09/10 03:56:41;;;;;;;8.38;5.38;;;22.10;72.20;;;;;;5012912;28;20037;-74
2023/09/10 03:59:07;;;;;;;12.18;5.47;;;22.10;72.40;;;;;;5012596;28;20030;-74
2023/09/10 04:01:34;;;;;;;7.40;5.45;;;22.10;72.50;;;;;;5012965;28;20030;-74
2023/09/10 04:04:01;;;;;;;8.50;5.20;;;22.10;72.80;;;;;;5012713;28;20030;-74
2023/09/10 04:06:26;;;;;;;7.88;5.45;;;22.00;73.10;;;;;;5012762;28;20067;-75
2023/09/10 04:08:52;;;;;;;5.57;4.93;;;22.10;73.20;;;;;;5012626;28;20013;-74
2023/09/10 04:11:18;;;;;;;9.85;5.38;;;22.10;73.00;;;;;;5011124;28;20050;-74
2023/09/10 04:13:44;;;;;;;12.43;5.55;;;22.00;72.70;;;;;;5012869;28;20030;-74
2023/09/10 04:16:09;;;;;;;7.32;5.13;;;22.00;72.80;;;;;;5013131;28;20030;-74
2023/09/10 04:18:35;;;;;;;7.95;5.30;;;22.00;73.30;;;;;;5016470;28;20076;-74
2023/09/10 04:21:04;;;;;;;7.85;5.25;;;22.00;72.80;;;;;;5016432;28;20073;-74
2023/09/10 04:23:30;;;;;;;10.23;5.55;;;22.00;73.10;;;;;;5016173;28;20024;-73
2023/09/10 04:25:56;;;;;;;10.30;5.68;;;22.00;73.10;;;;;;5016119;28;20111;-74
2023/09/10 04:28:22;;;;;;;5.20;4.63;;;22.00;73.30;;;;;;5016074;28;20022;-74
2023/09/10 04:30:48;;;;;;;6.28;5.28;;;22.00;73.40;;;;;;5016032;28;20042;-74
2023/09/10 04:33:16;;;;;;;9.23;5.43;;;21.90;73.40;;;;;;5015945;28;20029;-74
2023/09/10 04:35:53;;;;;;;8.15;5.18;;;21.90;73.30;;;;;;5016292;28;20025;-74
2023/09/10 04:38:19;;;;;;;10.45;5.40;;;21.90;73.40;;;;;;5016227;28;20104;-74
2023/09/10 04:40:45;;;;;;;7.30;5.03;;;21.90;73.40;;;;;;5031342;28;20032;-74
2023/09/10 04:43:11;;;;;;;5.72;5.10;;;21.90;73.10;;;;;;5015918;28;20385;-74
2023/09/10 04:45:36;;;;;;;7.75;5.22;;;21.90;73.00;;;;;;5014663;28;20022;-74
2023/09/10 04:48:04;;;;;;;7.88;4.85;;;21.90;72.90;;;;;;5012878;28;20030;-74
2023/09/10 04:50:30;;;;;;;6.53;4.93;;;21.90;73.00;;;;;;5012926;28;21098;-74
2023/09/10 04:52:55;;;;;;;10.00;5.00;;;21.90;73.00;;;;;;5015749;28;20083;-74
2023/09/10 04:55:21;;;;;;;15.25;5.18;;;21.90;73.00;;;;;;5030840;28;20478;-74
2023/09/10 04:57:48;;;;;;;7.47;5.07;;;21.90;73.10;;;;;;5015780;28;20108;-74
2023/09/10 05:00:14;;;;;;;10.43;6.20;;;21.90;73.20;;;;;;5015815;28;20036;-74
2023/09/10 05:02:39;;;;;;;5.97;5.38;;;21.90;73.20;;;;;;5015529;28;20026;-74
2023/09/10 05:05:05;;;;;;;6.10;5.05;;;21.90;73.10;;;;;;5015533;28;20028;-74
2023/09/10 05:07:31;;;;;;;7.05;5.18;;;22.00;73.20;;;;;;5015683;28;20467;-75
2023/09/10 05:09:57;;;;;;;8.48;4.53;;;22.00;73.20;;;;;;5015660;28;20025;-74
2023/09/10 05:12:23;;;;;;;10.07;4.97;;;22.00;73.90;;;;;;5015296;28;20059;-74
2023/09/10 05:14:48;;;;;;;10.75;5.70;;;22.00;73.30;;;;;;5015534;28;20021;-74
2023/09/10 05:17:14;;;;;;;11.50;5.90;;;22.00;73.50;;;;;;5015272;28;20034;-74
2023/09/10 05:19:40;;;;;;;8.23;6.10;;;21.90;73.80;;;;;;5015039;28;20034;-74
2023/09/10 05:22:05;;;;;;;10.00;5.60;;;21.80;74.30;;;;;;5015205;28;20033;-75
2023/09/10 05:24:31;;;;;;;8.48;5.55;;;21.80;74.50;;;;;;5015202;28;20026;-74
2023/09/10 05:26:57;;;;;;;7.40;5.38;;;21.80;74.50;;;;;;5030417;28;20030;-75
2023/09/10 05:29:23;;;;;;;8.90;5.82;;;21.80;74.40;;;;;;5014549;28;20026;-75
2023/09/10 05:31:48;;;;;;;10.25;5.88;;;21.70;74.60;;;;;;5013670;28;20048;-74
2023/09/10 05:34:16;;;;;;;8.90;5.57;;;21.70;74.60;;;;;;5014912;28;20034;-74
2023/09/10 05:36:42;;;;;;;12.18;5.78;;;21.70;74.90;;;;;;5015046;28;20080;-74
2023/09/10 05:39:07;;;;;;;8.63;5.60;;;21.60;75.20;;;;;;5014881;28;20402;-73
2023/09/10 05:41:33;;;;;;;15.68;6.80;;;21.60;75.60;;;;;;5014964;28;20033;-74
2023/09/10 05:43:59;;;;;;;10.43;7.50;;;21.70;75.40;;;;;;5014922;28;20053;-74
2023/09/10 05:46:25;;;;;;;9.80;5.90;;;21.70;75.50;;;;;;5014612;28;20026;-74
2023/09/10 05:48:50;;;;;;;10.90;6.57;;;21.70;75.70;;;;;;5014703;28;20029;-74
2023/09/10 05:51:16;;;;;;;10.38;6.38;;;21.60;76.00;;;;;;5014652;28;20057;-74
2023/09/10 05:53:42;;;;;;;8.95;6.18;;;21.60;76.40;;;;;;5014755;28;20022;-74
2023/09/10 05:56:08;;;;;;;9.70;6.47;;;21.60;76.20;;;;;;5014570;28;20573;-74
2023/09/10 05:58:34;;;;;;;15.82;6.85;;;21.60;76.80;;;;;;5014412;28;20026;-74
2023/09/10 06:01:00;;;;;;;9.55;6.18;;;21.50;76.80;;;;;;5014475;28;20056;-73
2023/09/10 06:03:26;;;;;;;8.68;6.30;;;21.60;77.00;;;;;;5014554;28;20026;-74
2023/09/10 06:05:52;;;;;;;8.20;6.15;;;21.60;77.60;;;;;;5014342;28;20406;-73
2023/09/10 06:08:18;;;;;;;9.27;5.40;;;21.60;78.10;;;;;;5014442;28;20037;-74
2023/09/10 06:10:43;;;;;;;14.32;5.55;;;21.70;78.50;;;;;;5014053;28;20052;-74
2023/09/10 06:13:09;;;;;;;8.57;5.53;;;21.70;78.40;;;;;;5012955;28;20022;-75
2023/09/10 06:15:38;;;;;;;13.10;5.45;;;21.70;78.50;;;;;;5014074;28;20536;-73
2023/09/10 06:18:04;;;;;;;9.82;6.00;;;21.80;78.40;;;;;;5014232;28;20022;-73
2023/09/10 06:20:30;;;;;;;10.02;5.40;;;21.90;78.10;;;;;;5013801;28;20065;-73
2023/09/10 06:22:57;;;;;;;10.30;5.53;;;21.90;77.80;;;;;;5014175;28;20022;-73
2023/09/10 06:25:24;;;;;;;9.10;5.45;;;21.90;77.40;;;;;;5014240;28;20018;-75
2023/09/10 06:27:50;;;;;;;12.40;5.72;;;22.00;77.00;;;;;;5013914;28;20136;-73
2023/09/10 06:30:16;;;;;;;12.23;5.70;;;22.00;76.70;;;;;;5012491;28;20485;-75
2023/09/10 06:32:41;;;;;;;9.05;5.22;;;22.10;76.30;;;;;;5014105;28;20061;-74
2023/09/10 06:35:07;;;;;;;6.07;5.47;;;22.20;76.10;;;;;;5013996;28;20044;-74
2023/09/10 06:37:33;;;;;;;10.25;5.15;;;22.20;76.00;;;;;;5013850;28;20032;-73
2023/09/10 06:39:59;;;;;;;7.68;5.20;;;22.30;76.00;;;;;;5013413;28;20022;-74
2023/09/10 06:42:25;;;;;;;8.90;5.47;;;22.30;75.90;;;;;;5013775;28;20509;-73
2023/09/10 06:44:51;;;;;;;6.05;5.10;;;22.40;76.70;;;;;;5013933;28;20026;-73
2023/09/10 06:47:17;;;;;;;7.43;5.68;;;22.40;76.40;;;;;;5028855;28;20030;-73
2023/09/10 06:49:42;;;;;;;9.52;5.10;;;22.50;76.60;;;;;;5013387;28;20060;-73
2023/09/10 06:52:09;;;;;;;7.00;4.95;;;22.60;76.10;;;;;;5013523;28;20049;-73
2023/09/10 06:54:35;;;;;;;7.90;5.60;;;22.60;75.70;;;;;;5012494;28;20604;-73
2023/09/10 06:57:01;;;;;;;11.07;5.03;;;22.60;75.60;;;;;;5028684;28;20371;-74
2023/09/10 06:59:29;;;;;;;11.35;5.20;;;22.70;75.40;;;;;;5013830;28;20036;-74
2023/09/10 07:01:56;;;;;;;6.63;4.90;;;22.70;75.20;;;;;;5013544;28;20493;-73
2023/09/10 07:04:23;;;;;;;8.88;5.13;;;22.80;75.10;;;;;;5013556;28;20164;-73
2023/09/10 07:06:51;;;;;;;10.80;5.50;;;22.90;74.90;;;;;;5013451;28;20022;-74
2023/09/10 07:09:21;;;;;;;9.55;5.00;;;22.90;74.70;;;;;;5013538;28;20034;-74
2023/09/10 07:11:48;;;;;;;9.88;5.32;;;22.90;74.30;;;;;;5013220;28;20060;-74
2023/09/10 07:14:13;;;;;;;14.40;5.18;;;22.90;74.10;;;;;;5013415;28;20022;-74
2023/09/10 07:16:39;;;;;;;6.72;5.18;;;23.00;74.10;;;;;;5013197;28;20096;-74
2023/09/10 07:19:05;;;;;;;8.23;5.18;;;23.10;74.00;;;;;;5013358;28;20018;-74
2023/09/10 07:21:31;;;;;;;6.95;5.18;;;23.10;73.80;;;;;;5013316;28;20048;-74
2023/09/10 07:23:56;;;;;;;6.40;5.22;;;23.20;73.90;;;;;;5013320;28;20025;-74
2023/09/10 07:26:22;;;;;;;7.72;4.80;;;23.20;73.70;;;;;;5013000;28;20022;-73
2023/09/10 07:28:48;;;;;;;10.27;5.03;;;23.30;73.40;;;;;;5013213;28;20030;-74
2023/09/10 07:31:14;;;;;;;9.20;5.15;;;23.30;73.40;;;;;;5013081;28;20535;-74
2023/09/10 07:33:40;;;;;;;10.57;4.65;;;23.30;73.40;;;;;;5013303;28;20056;-74
2023/09/10 07:36:05;;;;;;;6.45;5.22;;;23.40;73.50;;;;;;5013245;28;20109;-74
2023/09/10 07:38:31;;;;;;;9.68;5.07;;;23.40;73.20;;;;;;5011866;28;20485;-73
2023/09/10 07:40:57;;;;;;;9.77;5.03;;;23.50;73.40;;;;;;5012996;28;20030;-74
2023/09/10 07:43:23;;;;;;;8.95;5.45;;;23.50;73.30;;;;;;5013105;28;20033;-74
2023/09/10 07:45:49;;;;;;;9.68;5.03;;;23.60;72.80;;;;;;5011940;28;20115;-73
2023/09/10 07:48:15;;;;;;;7.65;4.70;;;23.60;72.80;;;;;;5013112;28;20026;-74
2023/09/10 07:50:42;;;;;;;6.97;5.28;;;23.70;73.10;;;;;;5013091;28;20037;-74
2023/09/10 07:53:08;;;;;;;8.25;5.13;;;23.80;73.10;;;;;;5016485;28;20101;-74
2023/09/10 07:55:36;;;;;;;7.82;4.95;;;23.80;72.60;;;;;;5016653;28;20105;-73
2023/09/10 07:58:03;;;;;;;6.20;4.82;;;23.90;72.70;;;;;;5016816;28;20497;-73
2023/09/10 08:00:34;;;;;;;12.20;5.05;;;23.90;72.50;;;;;;5016802;28;20076;-74
2023/09/10 08:03:03;;;;;;;7.20;5.07;;;24.00;72.40;;;;;;5016752;28;20026;-74
2023/09/10 08:05:29;;;;;;;6.82;5.05;;;24.00;72.40;;;;;;5016798;28;20442;-73
2023/09/10 08:07:55;;;;;;;6.43;4.88;;;24.10;72.30;;;;;;5016498;28;20026;-73
2023/09/10 08:10:21;;;;;;;7.80;5.10;;;24.10;72.40;;;;;;5016444;28;20042;-73
2023/09/10 08:12:46;;;;;;;8.15;5.32;;;24.20;72.20;;;;;;5016671;28;20091;-74
2023/09/10 08:15:12;;;;;;;7.78;4.85;;;24.20;72.00;;;;;;5016409;28;20025;-73
2023/09/10 08:17:38;;;;;;;4.93;4.43;;;24.20;71.70;;;;;;5016435;28;20022;-73
2023/09/10 08:20:06;;;;;;;11.32;5.50;;;24.30;71.70;;;;;;5016463;28;20459;-73
2023/09/10 08:22:32;;;;;;;5.70;4.60;;;24.40;71.70;;;;;;5016289;28;20022;-74
2023/09/10 08:24:58;;;;;;;11.85;4.97;;;24.40;71.90;;;;;;5016359;28;20029;-74
2023/09/10 08:27:24;;;;;;;8.15;4.93;;;24.50;72.10;;;;;;5016375;28;20026;-74
2023/09/10 08:29:49;;;;;;;7.03;4.60;;;24.50;71.90;;;;;;5016081;28;20075;-74
2023/09/10 08:32:15;;;;;;;9.40;5.32;;;24.60;71.70;;;;;;5016189;28;20045;-74
2023/09/10 08:34:41;;;;;;;7.80;5.25;;;24.60;71.50;;;;;;5015923;28;20463;-73
2023/09/10 08:37:09;;;;;;;10.73;4.75;;;24.70;71.20;;;;;;5015792;28;20034;-73
2023/09/10 08:39:36;;;;;;;6.88;5.40;;;24.80;71.00;;;;;;5016248;28;20100;-74
2023/09/10 08:42:11;;;;;;;7.00;4.75;;;24.80;71.70;;;;;;5016004;28;20097;-74
2023/09/10 08:44:41;;;;;;;6.85;5.15;;;24.90;72.10;;;;;;5015945;28;20037;-74
2023/09/10 08:47:08;;;;;;;8.23;5.13;;;25.00;71.60;;;;;;5016036;28;20049;-74
2023/09/10 08:49:35;;;;;;;7.47;4.80;;;25.00;71.00;;;;;;5015570;28;20026;-73
2023/09/10 08:52:01;;;;;;;11.90;5.15;;;25.20;70.70;;;;;;5015781;28;20498;-73
2023/09/10 08:54:28;;;;;;;7.05;4.43;;;25.20;70.00;;;;;;5015952;28;20057;-74
2023/09/10 08:56:55;;;;;;;6.15;4.80;;;25.30;68.20;;;;;;5015611;28;20105;-73
2023/09/10 08:59:23;;;;;;;9.90;4.78;;;25.40;68.90;;;;;;5015666;28;20028;-73
2023/09/10 09:01:49;;;;;;;6.13;4.20;;;25.40;69.20;;;;;;5015718;28;20386;-74
2023/09/10 09:04:15;;;;;;;8.23;3.97;;;25.50;69.50;;;;;;5014099;28;20018;-74
2023/09/10 09:06:47;;;;;;;8.65;4.20;;;25.60;68.80;;;;;;5015561;28;20030;-74
2023/09/10 09:09:16;;;;;;;9.50;4.30;;;25.70;68.50;;;;;;5014175;28;20406;-74
2023/09/10 09:11:42;;;;;;;8.15;4.55;;;25.70;67.30;;;;;;5014741;28;20049;-74
2023/09/10 09:14:09;;;;;;;6.85;4.80;;;25.80;68.00;;;;;;5013973;28;20026;-73
2023/09/10 09:16:40;;;;;;;7.75;4.20;;;25.90;66.20;;;;;;5013952;28;20113;-74
2023/09/10 09:19:11;;;;;;;10.82;4.63;;;26.00;64.30;;;;;;5015342;28;20022;-73
2023/09/10 09:21:42;;;;;;;9.05;4.28;;;26.00;63.30;;;;;;5015225;28;20033;-74
2023/09/10 09:24:10;;;;;;;7.57;4.45;;;26.10;62.80;;;;;;5015199;28;20541;-74
2023/09/10 09:26:36;;;;;;;10.55;4.22;;;26.20;62.90;;;;;;5014935;28;20022;-73
2023/09/10 09:29:03;;;;;;;8.82;4.50;;;26.20;63.60;;;;;;5014947;28;20026;-73
2023/09/10 09:31:29;;;;;;;10.38;5.45;;;26.30;63.20;;;;;;5014988;28;20389;-74
2023/09/10 09:33:55;;;;;;;13.82;4.95;;;26.40;64.00;;;;;;5014847;28;20033;-74
2023/09/10 09:36:32;;;;;;;8.35;4.32;;;26.50;63.80;;;;;;5014647;28;20018;-73
2023/09/10 09:38:58;;;;;;;5.95;4.07;;;26.50;63.10;;;;;;5014759;28;20141;-73
2023/09/10 09:41:24;;;;;;;10.52;4.22;;;26.60;61.30;;;;;;5014944;28;20486;-73
2023/09/10 09:43:49;;;;;;;6.47;3.85;;;26.60;60.40;;;;;;5014576;28;20022;-73
2023/09/10 09:46:16;;;;;;;12.90;5.05;;;26.70;61.00;;;;;;5014731;28;20061;-73
2023/09/10 09:48:42;;;;;;;6.72;4.00;;;26.80;61.00;;;;;;5014760;28;20029;-74
2023/09/10 09:51:09;;;;;;;7.35;3.92;;;26.90;58.20;;;;;;5014622;28;20434;-74
2023/09/10 09:53:35;;;;;;;10.23;4.00;;;26.90;57.80;;;;;;5014852;28;20033;-73
2023/09/10 09:56:04;;;;;;;8.95;4.13;;;26.90;58.50;;;;;;5014705;28;20014;-74
2023/09/10 09:58:30;;;;;;;8.25;4.38;;;27.00;58.50;;;;;;5014525;28;20037;-73
2023/09/10 10:00:57;;;;;;;6.45;4.05;;;27.00;58.30;;;;;;5013260;28;20025;-73
2023/09/10 10:03:24;;;;;;;7.60;3.83;;;27.10;57.40;;;;;;5029729;28;20117;-74
2023/09/10 10:05:51;;;;;;;7.30;4.07;;;27.10;58.70;;;;;;5014341;28;20096;-74
2023/09/10 10:08:25;;;;;;;11.05;3.92;;;27.20;58.40;;;;;;5014328;28;20041;-74
2023/09/10 10:10:51;;;;;;;12.45;4.57;;;27.30;58.00;;;;;;5014032;28;20125;-73
2023/09/10 10:13:19;;;;;;;12.32;4.25;;;27.30;57.80;;;;;;5014486;28;20057;-73
2023/09/10 10:15:49;;;;;;;13.10;4.63;;;27.40;58.50;;;;;;5014003;28;20097;-74
2023/09/10 10:18:15;;;;;;;7.68;3.83;;;27.50;57.30;;;;;;5014267;28;20034;-74
2023/09/10 10:20:46;;;;;;;7.30;4.20;;;27.60;57.20;;;;;;5014187;28;20057;-73
2023/09/10 10:23:13;;;;;;;6.50;3.65;;;27.60;56.60;;;;;;5013976;28;20113;-74
2023/09/10 10:25:40;;;;;;;10.63;3.97;;;27.60;54.90;;;;;;5014031;28;20492;-74
2023/09/10 10:28:09;;;;;;;8.65;4.03;;;27.70;56.40;;;;;;5014175;28;20402;-74
2023/09/10 10:30:48;;;;;;;12.27;4.18;;;27.70;56.00;;;;;;5014061;28;20033;-74
2023/09/10 10:33:16;;;;;;;10.63;3.80;;;27.80;56.10;;;;;;5014008;28;20145;-73
2023/09/10 10:35:56;;;;;;;7.07;3.95;;;27.80;55.70;;;;;;5013964;28;20493;-74
2023/09/10 10:38:24;;;;;;;10.57;4.10;;;27.90;55.20;;;;;;5013645;28;20022;-73
2023/09/10 10:40:54;;;;;;;5.65;3.63;;;27.90;55.10;;;;;;5013599;28;20037;-73
2023/09/10 10:43:30;;;;;;;8.00;3.80;;;28.00;56.20;;;;;;5013628;28;20022;-73
2023/09/10 10:45:57;;;;;;;4.85;3.60;;;28.00;56.20;;;;;;5013844;28;20617;-73
2023/09/10 10:48:30;;;;;;;7.78;3.75;;;28.10;56.00;;;;;;5013400;28;20029;-73
2023/09/10 10:50:58;;;;;;;8.93;4.03;;;28.20;56.60;;;;;;5012337;28;20042;-73
2023/09/10 10:53:24;;;;;;;6.72;4.00;;;28.30;56.90;;;;;;5013795;28;20113;-73
2023/09/10 10:55:56;;;;;;;5.70;4.13;;;28.30;56.50;;;;;;5013623;28;20514;-74
2023/09/10 10:58:23;;;;;;;11.93;4.18;;;28.40;55.80;;;;;;5011660;28;20382;-74
2023/09/10 11:00:51;;;;;;;5.20;3.90;;;28.40;54.10;;;;;;5010711;28;20445;-74
2023/09/10 11:03:20;;;;;;;8.00;3.72;;;28.50;54.10;;;;;;5012104;28;20022;-74
2023/09/10 11:05:57;;;;;;;9.43;3.90;;;28.50;54.90;;;;;;5013614;28;20044;-73
2023/09/10 11:08:48;;;;;;;7.95;4.20;;;28.60;56.00;;;;;;5013431;28;20014;-74
2023/09/10 11:11:39;;;;;;;9.68;4.50;;;28.70;56.00;;;;;;5013111;28;20108;-74
2023/09/10 11:14:08;;;;;;;6.28;3.95;;;28.80;54.60;;;;;;5013341;28;20056;-73
2023/09/10 11:16:34;;;;;;;7.72;3.65;;;28.80;53.60;;;;;;5013241;28;20028;-74
2023/09/10 11:19:02;;;;;;;6.07;4.00;;;28.80;54.50;;;;;;5013355;28;20026;-74
2023/09/10 11:21:56;;;;;;;12.88;4.07;;;28.90;55.40;;;;;;5013089;28;20030;-73
2023/09/10 11:24:21;;;;;;;7.78;3.28;;;29.00;55.40;;;;;;5010422;28;20030;-73
2023/09/10 11:26:48;;;;;;;6.30;4.00;;;29.00;54.10;;;;;;5009654;28;20386;-73
2023/09/10 11:29:18;;;;;;;12.98;3.60;;;29.10;53.60;;;;;;5011077;28;20025;-73
2023/09/10 11:31:51;;;;;;;5.90;3.80;;;29.10;53.40;;;;;;5012942;28;20612;-74
2023/09/10 11:34:17;;;;;;;7.15;4.00;;;29.20;54.00;;;;;;5012906;28;20014;-73
2023/09/10 11:36:47;;;;;;;8.88;3.90;;;29.20;53.80;;;;;;5013211;28;20029;-73
2023/09/10 11:39:15;;;;;;;7.22;3.95;;;29.30;54.60;;;;;;5012565;28;20478;-73
2023/09/10 11:41:45;;;;;;;5.60;3.70;;;29.30;54.50;;;;;;5012996;28;20034;-74
2023/09/10 11:44:10;;;;;;;10.38;4.10;;;29.40;55.00;;;;;;5012896;28;20355;-73
2023/09/10 11:46:37;;;;;;;8.95;4.22;;;29.50;54.70;;;;;;5012807;28;20040;-74
2023/09/10 11:49:03;;;;;;;9.48;3.67;;;29.60;54.50;;;;;;5012687;28;20026;-74
2023/09/10 11:51:30;;;;;;;6.45;3.92;;;29.60;54.50;;;;;;5012652;28;20045;-74
2023/09/10 11:53:57;;;;;;;8.95;3.95;;;29.70;53.50;;;;;;5012774;28;20038;-74
2023/09/10 11:56:24;;;;;;;5.38;3.88;;;29.70;53.50;;;;;;5011780;28;20456;-74
2023/09/10 11:58:49;;;;;;;12.90;4.05;;;29.70;53.10;;;;;;5011735;28;20501;-74
2023/09/10 12:01:15;;;;;;;7.57;3.97;;;29.80;53.80;;;;;;5012433;28;20030;-74
2023/09/10 12:03:41;;;;;;;5.05;3.88;;;29.90;54.00;;;;;;5012787;28;20088;-74
2023/09/10 12:06:07;;;;;;;10.82;4.00;;;29.90;54.10;;;;;;5012936;28;20034;-73
2023/09/10 12:08:33;;;;;;;9.60;3.90;;;30.00;53.40;;;;;;5012864;28;20029;-73
2023/09/10 12:11:03;;;;;;;7.55;3.92;;;30.10;53.70;;;;;;5012551;28;20506;-74
2023/09/10 12:13:32;;;;;;;8.95;3.85;;;30.10;53.20;;;;;;5012594;28;20041;-74
2023/09/10 12:15:58;;;;;;;9.00;3.90;;;30.20;53.50;;;;;;5012421;28;20026;-74
2023/09/10 12:18:24;;;;;;;9.65;4.22;;;30.20;52.50;;;;;;5012760;28;20493;-74
2023/09/10 12:20:51;;;;;;;6.15;4.43;;;30.30;52.70;;;;;;5012606;28;20429;-74
2023/09/10 12:23:17;;;;;;;6.88;3.30;;;30.30;52.80;;;;;;5012326;28;20026;-74
2023/09/10 12:25:42;;;;;;;9.93;3.90;;;30.40;53.70;;;;;;5012268;28;20504;-74
2023/09/10 12:28:08;;;;;;;7.07;3.75;;;30.40;52.60;;;;;;5012294;28;20101;-74
2023/09/10 12:30:36;;;;;;;9.02;3.85;;;30.50;52.50;;;;;;5012026;28;20084;-74
2023/09/10 12:33:02;;;;;;;6.35;3.83;;;30.50;52.60;;;;;;5011064;28;20014;-73
2023/09/10 12:35:30;;;;;;;5.20;3.53;;;30.50;50.60;;;;;;5011488;28;20470;-73
2023/09/10 12:37:55;;;;;;;8.85;4.07;;;30.60;51.00;;;;;;5014235;28;20072;-75
2023/09/10 12:40:24;;;;;;;7.53;3.78;;;30.60;50.50;;;;;;5015981;28;20056;-74
2023/09/10 12:42:51;;;;;;;10.27;3.55;;;30.60;51.50;;;;;;5015842;28;20025;-74
2023/09/10 12:45:17;;;;;;;6.70;4.22;;;30.70;51.70;;;;;;5015303;28;20026;-75